createdAt,value
2023-04-25T00:00:08.218Z,417.00
2023-04-25T00:01:08.303Z,419.00
2023-04-25T00:02:08.409Z,419.00
2023-04-25T00:03:08.546Z,422.00
2023-04-25T00:04:08.766Z,424.00
2023-04-25T00:05:08.703Z,425.00
2023-04-25T00:06:08.561Z,428.00
2023-04-25T00:07:08.654Z,430.00
2023-04-25T00:08:08.678Z,431.00
2023-04-25T00:09:08.748Z,430.00
2023-04-25T00:10:08.797Z,429.00
2023-04-25T00:11:08.862Z,429.00
2023-04-25T00:12:08.913Z,429.00
2023-04-25T00:13:08.985Z,428.00
2023-04-25T00:14:09.089Z,426.00
2023-04-25T00:15:09.157Z,423.00
2023-04-25T00:16:09.214Z,422.00
2023-04-25T00:17:09.252Z,423.00
2023-04-25T00:18:09.325Z,424.00
2023-04-25T00:19:09.363Z,426.00
2023-04-25T00:20:09.484Z,426.00
2023-04-25T00:21:09.483Z,426.00
2023-04-25T00:22:09.554Z,425.00
2023-04-25T00:23:09.601Z,426.00
2023-04-25T00:24:09.714Z,426.00
2023-04-25T00:25:09.781Z,426.00
2023-04-25T00:26:09.777Z,425.00
2023-04-25T00:27:09.896Z,424.00
2023-04-25T00:28:09.914Z,422.00
2023-04-25T00:29:10.283Z,421.00
2023-04-25T00:30:10.070Z,421.00
2023-04-25T00:31:10.181Z,419.00
2023-04-25T00:32:10.196Z,420.00
2023-04-25T00:33:10.260Z,421.00
2023-04-25T00:34:10.318Z,420.00
2023-04-25T00:35:10.362Z,419.00
2023-04-25T00:36:10.440Z,419.00
2023-04-25T00:37:10.465Z,418.00
2023-04-25T00:38:10.579Z,419.00
2023-04-25T00:39:10.642Z,419.00
2023-04-25T00:40:10.664Z,422.00
2023-04-25T00:41:10.697Z,423.00
2023-04-25T00:42:10.770Z,422.00
2023-04-25T00:43:11.140Z,422.00
2023-04-25T00:44:10.869Z,421.00
2023-04-25T00:45:10.931Z,420.00
2023-04-25T00:46:11.042Z,419.00
2023-04-25T00:47:11.035Z,418.00
2023-04-25T00:48:11.213Z,418.00
2023-04-25T00:49:11.133Z,419.00
2023-04-25T00:50:11.169Z,418.00
2023-04-25T00:51:11.244Z,417.00
2023-04-25T00:52:11.290Z,418.00
2023-04-25T00:53:11.348Z,417.00
2023-04-25T00:54:11.428Z,417.00
2023-04-25T00:55:11.462Z,417.00
2023-04-25T00:56:11.528Z,419.00
2023-04-25T00:57:11.581Z,418.00
2023-04-25T00:58:11.638Z,419.00
2023-04-25T00:59:11.796Z,418.00
2023-04-25T01:00:11.753Z,419.00
2023-04-25T01:01:11.863Z,421.00
2023-04-25T01:02:11.944Z,422.00
2023-04-25T01:03:12.134Z,421.00
2023-04-25T01:04:12.051Z,421.00
2023-04-25T01:05:12.000Z,422.00
2023-04-25T01:06:12.091Z,422.00
2023-04-25T01:07:12.208Z,422.00
2023-04-25T01:08:12.369Z,422.00
2023-04-25T01:09:12.243Z,423.00
2023-04-25T01:10:12.316Z,423.00
2023-04-25T01:11:12.408Z,422.00
2023-04-25T01:12:13.156Z,420.00
2023-04-25T01:13:12.486Z,420.00
2023-04-25T01:14:12.562Z,421.00
2023-04-25T01:15:12.623Z,422.00
2023-04-25T01:16:12.676Z,423.00
2023-04-25T01:17:12.678Z,421.00
2023-04-25T01:18:12.921Z,421.00
2023-04-25T01:19:12.849Z,420.00
2023-04-25T01:20:12.933Z,422.00
2023-04-25T01:21:12.940Z,422.00
2023-04-25T01:22:13.008Z,421.00
2023-04-25T01:23:13.104Z,422.00
2023-04-25T01:24:13.123Z,420.00
2023-04-25T01:25:13.208Z,422.00
2023-04-25T01:26:13.270Z,422.00
2023-04-25T01:27:13.326Z,422.00
2023-04-25T01:28:13.452Z,421.00
2023-04-25T01:29:13.438Z,420.00
2023-04-25T01:30:13.466Z,421.00
2023-04-25T01:31:13.473Z,420.00
2023-04-25T01:32:13.692Z,418.00
2023-04-25T01:33:13.621Z,417.00
2023-04-25T01:34:13.698Z,416.00
2023-04-25T01:35:13.713Z,416.00
2023-04-25T01:36:13.746Z,416.00
2023-04-25T01:37:13.802Z,416.00
2023-04-25T01:38:13.856Z,417.00
2023-04-25T01:39:13.944Z,419.00
2023-04-25T01:40:13.955Z,418.00
2023-04-25T01:41:14.027Z,420.00
2023-04-25T01:42:14.056Z,421.00
2023-04-25T01:43:14.095Z,423.00
2023-04-25T01:44:14.238Z,424.00
2023-04-25T01:45:14.241Z,424.00
2023-04-25T01:46:14.340Z,425.00
2023-04-25T01:47:14.269Z,427.00
2023-04-25T01:48:14.353Z,426.00
2023-04-25T01:49:14.309Z,425.00
2023-04-25T01:50:14.391Z,424.00
2023-04-25T01:51:14.408Z,425.00
2023-04-25T01:52:14.454Z,423.00
2023-04-25T01:53:14.513Z,424.00
2023-04-25T01:54:14.516Z,424.00
2023-04-25T01:55:14.568Z,423.00
2023-04-25T01:56:14.596Z,424.00
2023-04-25T01:57:14.650Z,426.00
2023-04-25T01:58:14.604Z,427.00
2023-04-25T01:59:14.627Z,424.00
2023-04-25T02:00:14.684Z,425.00
2023-04-25T02:01:14.714Z,425.00
2023-04-25T02:02:14.920Z,426.00
2023-04-25T02:03:14.873Z,424.00
2023-04-25T02:04:15.063Z,424.00
2023-04-25T02:05:14.910Z,423.00
2023-04-25T02:06:14.915Z,422.00
2023-04-25T02:07:14.937Z,420.00
2023-04-25T02:08:14.994Z,420.00
2023-04-25T02:09:14.983Z,422.00
2023-04-25T02:10:15.018Z,421.00
2023-04-25T02:11:15.048Z,422.00
2023-04-25T02:12:15.211Z,422.00
2023-04-25T02:13:15.086Z,423.00
2023-04-25T02:14:15.130Z,422.00
2023-04-25T02:15:15.262Z,422.00
2023-04-25T02:16:15.410Z,421.00
2023-04-25T02:17:15.207Z,420.00
2023-04-25T02:18:15.320Z,421.00
2023-04-25T02:19:15.259Z,422.00
2023-04-25T02:20:15.266Z,422.00
2023-04-25T02:21:15.284Z,423.00
2023-04-25T02:22:15.294Z,424.00
2023-04-25T02:23:15.295Z,425.00
2023-04-25T02:24:15.322Z,426.00
2023-04-25T02:25:15.284Z,422.00
2023-04-25T02:26:15.318Z,422.00
2023-04-25T02:27:15.311Z,422.00
2023-04-25T02:28:15.377Z,423.00
2023-04-25T02:29:15.383Z,421.00
2023-04-25T02:30:15.501Z,420.00
2023-04-25T02:31:15.382Z,418.00
2023-04-25T02:32:15.354Z,417.00
2023-04-25T02:33:15.356Z,416.00
2023-04-25T02:34:15.417Z,413.00
2023-04-25T02:35:15.373Z,410.00
2023-04-25T02:36:15.429Z,412.00
2023-04-25T02:37:15.565Z,412.00
2023-04-25T02:38:15.458Z,414.00
2023-04-25T02:39:15.517Z,416.00
2023-04-25T02:40:15.481Z,416.00
2023-04-25T02:41:15.526Z,417.00
2023-04-25T02:42:15.531Z,416.00
2023-04-25T02:43:15.636Z,418.00
2023-04-25T02:44:15.585Z,420.00
2023-04-25T02:45:15.661Z,420.00
2023-04-25T02:46:17.633Z,419.00
2023-04-25T02:47:16.939Z,415.00
2023-04-25T02:48:15.675Z,412.00
2023-04-25T02:49:15.680Z,414.00
2023-04-25T02:50:15.627Z,412.00
2023-04-25T02:51:15.635Z,412.00
2023-04-25T02:52:15.649Z,411.00
2023-04-25T02:53:15.595Z,412.00
2023-04-25T02:54:15.599Z,413.00
2023-04-25T02:55:15.612Z,413.00
2023-04-25T02:56:15.604Z,413.00
2023-04-25T02:57:15.628Z,412.00
2023-04-25T02:58:15.581Z,412.00
2023-04-25T02:59:15.701Z,414.00
2023-04-25T03:00:15.553Z,414.00
2023-04-25T03:01:15.585Z,412.00
2023-04-25T03:02:15.561Z,412.00
2023-04-25T03:03:15.640Z,413.00
2023-04-25T03:04:15.559Z,412.00
2023-04-25T03:05:15.543Z,412.00
2023-04-25T03:06:15.532Z,415.00
2023-04-25T03:07:15.537Z,416.00
2023-04-25T03:08:15.546Z,418.00
2023-04-25T03:09:15.546Z,417.00
2023-04-25T03:10:15.553Z,417.00
2023-04-25T03:11:15.510Z,416.00
2023-04-25T03:12:15.509Z,417.00
2023-04-25T03:13:15.530Z,417.00
2023-04-25T03:14:15.528Z,415.00
2023-04-25T03:15:15.541Z,415.00
2023-04-25T03:16:15.562Z,417.00
2023-04-25T03:17:15.557Z,418.00
2023-04-25T03:18:15.556Z,418.00
2023-04-25T03:19:15.604Z,415.00
2023-04-25T03:20:15.606Z,414.00
2023-04-25T03:21:15.597Z,413.00
2023-04-25T03:22:15.589Z,412.00
2023-04-25T03:23:15.559Z,412.00
2023-04-25T03:24:15.525Z,410.00
2023-04-25T03:25:15.559Z,411.00
2023-04-25T03:26:15.582Z,411.00
2023-04-25T03:27:15.576Z,411.00
2023-04-25T03:28:15.540Z,410.00
2023-04-25T03:29:15.526Z,409.00
2023-04-25T03:30:15.540Z,410.00
2023-04-25T03:31:15.523Z,412.00
2023-04-25T03:32:15.670Z,411.00
2023-04-25T03:33:15.560Z,410.00
2023-04-25T03:34:15.519Z,410.00
2023-04-25T03:35:15.515Z,412.00
2023-04-25T03:36:15.500Z,412.00
2023-04-25T03:37:15.545Z,410.00
2023-04-25T03:38:15.547Z,411.00
2023-04-25T03:39:15.499Z,413.00
2023-04-25T03:40:15.532Z,412.00
2023-04-25T03:41:15.542Z,412.00
2023-04-25T03:42:15.544Z,411.00
2023-04-25T03:43:15.526Z,411.00
2023-04-25T03:44:15.489Z,411.00
2023-04-25T03:45:15.486Z,413.00
2023-04-25T03:46:15.516Z,413.00
2023-04-25T03:47:15.501Z,412.00
2023-04-25T03:48:15.620Z,410.00
2023-04-25T03:49:17.850Z,411.00
2023-04-25T03:50:15.532Z,411.00
2023-04-25T03:51:15.553Z,410.00
2023-04-25T03:52:15.513Z,411.00
2023-04-25T03:53:15.492Z,410.00
2023-04-25T03:54:15.506Z,409.00
2023-04-25T03:55:15.669Z,410.00
2023-04-25T03:56:15.542Z,410.00
2023-04-25T03:57:15.491Z,411.00
2023-04-25T03:58:15.483Z,411.00
2023-04-25T03:59:15.484Z,411.00
2023-04-25T04:00:15.445Z,412.00
2023-04-25T04:01:15.456Z,410.00
2023-04-25T04:02:15.526Z,410.00
2023-04-25T04:03:15.574Z,411.00
2023-04-25T04:04:15.717Z,410.00
2023-04-25T04:05:15.564Z,411.00
2023-04-25T04:06:15.432Z,411.00
2023-04-25T04:07:15.381Z,409.00
2023-04-25T04:08:15.416Z,409.00
2023-04-25T04:09:15.404Z,410.00
2023-04-25T04:10:15.409Z,413.00
2023-04-25T04:11:15.346Z,414.00
2023-04-25T04:12:15.358Z,415.00
2023-04-25T04:13:15.391Z,416.00
2023-04-25T04:14:15.376Z,416.00
2023-04-25T04:15:15.335Z,416.00
2023-04-25T04:16:15.383Z,416.00
2023-04-25T04:17:15.302Z,417.00
2023-04-25T04:18:15.344Z,417.00
2023-04-25T04:19:15.314Z,417.00
2023-04-25T04:20:15.326Z,418.00
2023-04-25T04:21:15.324Z,417.00
2023-04-25T04:22:15.290Z,415.00
2023-04-25T04:23:15.300Z,415.00
2023-04-25T04:24:15.302Z,414.00
2023-04-25T04:25:15.258Z,414.00
2023-04-25T04:26:15.250Z,414.00
2023-04-25T04:27:15.329Z,416.00
2023-04-25T04:28:15.274Z,417.00
2023-04-25T04:29:15.257Z,418.00
2023-04-25T04:30:15.239Z,419.00
2023-04-25T04:31:15.328Z,418.00
2023-04-25T04:32:15.257Z,419.00
2023-04-25T04:33:15.217Z,419.00
2023-04-25T04:34:15.212Z,419.00
2023-04-25T04:35:15.195Z,419.00
2023-04-25T04:36:15.240Z,417.00
2023-04-25T04:37:15.253Z,414.00
2023-04-25T04:38:15.189Z,414.00
2023-04-25T04:39:15.185Z,413.00
2023-04-25T04:40:15.152Z,412.00
2023-04-25T04:41:15.152Z,414.00
2023-04-25T04:42:15.166Z,411.00
2023-04-25T04:43:15.182Z,411.00
2023-04-25T04:44:15.131Z,410.00
2023-04-25T04:45:15.198Z,411.00
2023-04-25T04:46:15.169Z,413.00
2023-04-25T04:47:15.147Z,411.00
2023-04-25T04:48:15.154Z,411.00
2023-04-25T04:49:15.254Z,412.00
2023-04-25T04:50:15.192Z,410.00
2023-04-25T04:51:15.124Z,409.00
2023-04-25T04:52:15.090Z,410.00
2023-04-25T04:53:15.086Z,412.00
2023-04-25T04:54:15.057Z,415.00
2023-04-25T04:55:15.149Z,416.00
2023-04-25T04:56:15.029Z,415.00
2023-04-25T04:57:15.084Z,416.00
2023-04-25T04:58:16.455Z,416.00
2023-04-25T04:59:15.093Z,415.00
2023-04-25T05:00:15.141Z,415.00
2023-04-25T05:01:15.066Z,414.00
2023-04-25T05:02:15.064Z,415.00
2023-04-25T05:03:15.220Z,416.00
2023-04-25T05:04:15.169Z,416.00
2023-04-25T05:05:15.117Z,415.00
2023-04-25T05:06:15.166Z,416.00
2023-04-25T05:07:15.242Z,416.00
2023-04-25T05:08:15.247Z,416.00
2023-04-25T05:09:15.306Z,417.00
2023-04-25T05:10:15.371Z,420.00
2023-04-25T05:11:15.421Z,421.00
2023-04-25T05:12:15.475Z,420.00
2023-04-25T05:13:15.481Z,420.00
2023-04-25T05:14:15.540Z,422.00
2023-04-25T05:15:15.535Z,426.00
2023-04-25T05:16:15.662Z,430.00
2023-04-25T05:17:15.611Z,433.00
2023-04-25T05:18:15.642Z,419.00
2023-04-25T05:19:15.628Z,415.00
2023-04-25T05:20:15.635Z,417.00
2023-04-25T05:21:15.684Z,418.00
2023-04-25T05:22:15.641Z,421.00
2023-04-25T05:23:15.720Z,425.00
2023-04-25T05:24:15.734Z,428.00
2023-04-25T05:25:15.794Z,429.00
2023-04-25T05:26:15.828Z,429.00
2023-04-25T05:27:15.910Z,427.00
2023-04-25T05:28:15.894Z,432.00
2023-04-25T05:29:15.952Z,433.00
2023-04-25T05:30:16.326Z,437.00
2023-04-25T05:31:16.027Z,443.00
2023-04-25T05:32:16.205Z,447.00
2023-04-25T05:33:15.970Z,453.00
2023-04-25T05:34:16.034Z,472.00
2023-04-25T05:35:16.115Z,514.00
2023-04-25T05:36:16.052Z,524.00
2023-04-25T05:37:16.093Z,545.00
2023-04-25T05:38:16.165Z,579.00
2023-04-25T05:39:16.247Z,589.00
2023-04-25T05:40:16.358Z,588.00
2023-04-25T05:41:16.496Z,591.00
2023-04-25T05:42:16.814Z,603.00
2023-04-25T05:43:16.396Z,611.00
2023-04-25T05:44:16.397Z,610.00
2023-04-25T05:45:16.525Z,609.00
2023-04-25T05:46:16.578Z,621.00
2023-04-25T05:47:16.571Z,633.00
2023-04-25T05:48:16.563Z,653.00
2023-04-25T05:49:19.396Z,682.00
2023-04-25T05:50:16.655Z,685.00
2023-04-25T05:51:16.616Z,687.00
2023-04-25T05:52:16.606Z,690.00
2023-04-25T05:53:16.637Z,691.00
2023-04-25T05:54:16.742Z,691.00
2023-04-25T05:55:16.637Z,686.00
2023-04-25T05:56:16.579Z,688.00
2023-04-25T05:57:16.561Z,695.00
2023-04-25T05:58:16.612Z,696.00
2023-04-25T05:59:16.757Z,704.00
2023-04-25T06:00:17.303Z,715.00
2023-04-25T06:01:16.736Z,721.00
2023-04-25T06:02:16.665Z,731.00
2023-04-25T06:03:18.762Z,734.00
2023-04-25T06:04:16.987Z,736.00
2023-04-25T06:05:16.798Z,740.00
2023-04-25T06:06:16.493Z,747.00
2023-04-25T06:07:16.513Z,746.00
2023-04-25T06:08:16.612Z,746.00
2023-04-25T06:09:16.520Z,742.00
2023-04-25T06:10:16.449Z,740.00
2023-04-25T06:11:16.488Z,736.00
2023-04-25T06:12:16.492Z,727.00
2023-04-25T06:13:16.554Z,720.00
2023-04-25T06:14:16.447Z,725.00
2023-04-25T06:15:28.062Z,732.00
2023-04-25T06:16:17.563Z,736.00
2023-04-25T06:17:16.432Z,737.00
2023-04-25T06:18:16.440Z,740.00
2023-04-25T06:19:16.794Z,740.00
2023-04-25T06:20:16.444Z,741.00
2023-04-25T06:21:16.422Z,737.00
2023-04-25T06:22:16.401Z,602.00
2023-04-25T06:23:16.402Z,611.00
2023-04-25T06:24:16.794Z,610.00
2023-04-25T06:25:16.427Z,609.00
2023-04-25T06:26:16.856Z,618.00
2023-04-25T06:27:17.192Z,605.00
2023-04-25T06:28:16.608Z,666.00
2023-04-25T06:29:16.690Z,667.00
2023-04-25T06:30:16.689Z,679.00
2023-04-25T06:31:16.725Z,688.00
2023-04-25T06:32:16.709Z,698.00
2023-04-25T06:33:16.788Z,708.00
2023-04-25T06:34:16.811Z,714.00
2023-04-25T06:35:16.793Z,721.00
2023-04-25T06:36:16.812Z,678.00
2023-04-25T06:37:16.728Z,687.00
2023-04-25T06:38:16.804Z,695.00
2023-04-25T06:39:16.844Z,653.00
2023-04-25T06:40:17.310Z,746.00
2023-04-25T06:41:16.904Z,758.00
2023-04-25T06:42:16.900Z,759.00
2023-04-25T06:43:16.937Z,758.00
2023-04-25T06:44:16.956Z,760.00
2023-04-25T06:45:17.373Z,760.00
2023-04-25T06:46:17.006Z,758.00
2023-04-25T06:47:17.805Z,764.00
2023-04-25T06:48:17.814Z,771.00
2023-04-25T06:49:17.056Z,782.00
2023-04-25T06:50:17.315Z,793.00
2023-04-25T06:51:17.170Z,804.00
2023-04-25T06:52:17.215Z,811.00
2023-04-25T06:53:17.360Z,818.00
2023-04-25T06:54:17.306Z,825.00
2023-04-25T06:55:17.337Z,822.00
2023-04-25T06:56:17.342Z,828.00
2023-04-25T06:57:17.373Z,841.00
2023-04-25T06:58:17.393Z,852.00
2023-04-25T06:59:17.419Z,855.00
2023-04-25T07:00:17.452Z,855.00
2023-04-25T07:01:17.479Z,859.00
2023-04-25T07:02:17.561Z,867.00
2023-04-25T07:03:17.977Z,871.00
2023-04-25T07:04:17.851Z,879.00
2023-04-25T07:05:19.296Z,881.00
2023-04-25T07:06:17.762Z,884.00
2023-04-25T07:07:17.631Z,888.00
2023-04-25T07:08:17.798Z,892.00
2023-04-25T07:09:17.681Z,903.00
2023-04-25T07:10:17.625Z,908.00
2023-04-25T07:11:17.634Z,914.00
2023-04-25T07:12:17.662Z,921.00
2023-04-25T07:13:17.650Z,926.00
2023-04-25T07:14:17.650Z,931.00
2023-04-25T07:15:17.654Z,942.00
2023-04-25T07:16:17.655Z,951.00
2023-04-25T07:17:17.711Z,952.00
2023-04-25T07:18:17.670Z,951.00
2023-04-25T07:19:17.716Z,952.00
2023-04-25T07:20:17.675Z,952.00
2023-04-25T07:21:17.828Z,954.00
2023-04-25T07:22:17.692Z,954.00
2023-04-25T07:23:17.748Z,954.00
2023-04-25T07:24:17.757Z,956.00
2023-04-25T07:25:17.760Z,959.00
2023-04-25T07:26:17.839Z,963.00
2023-04-25T07:27:17.866Z,964.00
2023-04-25T07:28:19.497Z,965.00
2023-04-25T07:29:17.998Z,963.00
2023-04-25T07:30:18.064Z,968.00
2023-04-25T07:31:18.107Z,971.00
2023-04-25T07:32:18.273Z,972.00
2023-04-25T07:33:18.724Z,967.00
2023-04-25T07:34:18.354Z,927.00
2023-04-25T07:35:18.299Z,823.00
2023-04-25T07:36:18.314Z,846.00
2023-04-25T07:37:18.362Z,882.00
2023-04-25T07:38:18.331Z,902.00
2023-04-25T07:39:18.837Z,906.00
2023-04-25T07:40:18.398Z,913.00
2023-04-25T07:41:18.341Z,920.00
2023-04-25T07:42:18.517Z,919.00
2023-04-25T07:43:18.320Z,927.00
2023-04-25T07:44:18.984Z,931.00
2023-04-25T07:45:18.414Z,930.00
2023-04-25T07:46:21.881Z,929.00
2023-04-25T07:47:18.383Z,930.00
2023-04-25T07:48:18.358Z,932.00
2023-04-25T07:49:18.368Z,935.00
2023-04-25T07:50:18.331Z,936.00
2023-04-25T07:51:18.371Z,936.00
2023-04-25T07:52:18.441Z,938.00
2023-04-25T07:53:18.394Z,937.00
2023-04-25T07:54:18.481Z,938.00
2023-04-25T07:55:18.922Z,944.00
2023-04-25T07:56:18.984Z,949.00
2023-04-25T07:57:18.331Z,953.00
2023-04-25T07:58:18.296Z,962.00
2023-04-25T07:59:18.347Z,964.00
2023-04-25T08:00:19.133Z,965.00
2023-04-25T08:01:18.429Z,969.00
2023-04-25T08:02:18.317Z,965.00
2023-04-25T08:03:18.520Z,965.00
2023-04-25T08:04:18.523Z,973.00
2023-04-25T08:05:21.203Z,981.00
2023-04-25T08:06:18.492Z,987.00
2023-04-25T08:07:18.436Z,989.00
2023-04-25T08:08:18.868Z,991.00
2023-04-25T08:09:18.356Z,994.00
2023-04-25T08:10:18.244Z,998.00
2023-04-25T08:11:18.237Z,1004.00
2023-04-25T08:12:18.193Z,1002.00
2023-04-25T08:13:18.214Z,999.00
2023-04-25T08:14:18.211Z,999.00
2023-04-25T08:15:18.193Z,1000.00
2023-04-25T08:16:18.220Z,998.00
2023-04-25T08:17:18.176Z,994.00
2023-04-25T08:18:18.248Z,995.00
2023-04-25T08:19:18.514Z,995.00
2023-04-25T08:20:18.170Z,993.00
2023-04-25T08:21:18.136Z,992.00
2023-04-25T08:22:18.107Z,997.00
2023-04-25T08:23:18.526Z,997.00
2023-04-25T08:24:18.114Z,997.00
2023-04-25T08:25:18.168Z,1005.00
2023-04-25T08:26:18.206Z,1015.00
2023-04-25T08:27:18.115Z,939.00
2023-04-25T08:28:18.872Z,972.00
2023-04-25T08:29:18.096Z,975.00
2023-04-25T08:30:18.393Z,892.00
2023-04-25T08:31:18.104Z,813.00
2023-04-25T08:32:18.033Z,790.00
2023-04-25T08:33:18.108Z,767.00
2023-04-25T08:34:18.026Z,767.00
2023-04-25T08:35:18.030Z,765.00
2023-04-25T08:36:31.492Z,745.00
2023-04-25T08:37:19.034Z,730.00
2023-04-25T08:38:18.283Z,707.00
2023-04-25T08:39:18.239Z,693.00
2023-04-25T08:40:54.356Z,600.00
2023-04-25T08:41:54.662Z,594.00
2023-04-25T08:42:54.377Z,597.00
2023-04-25T08:43:54.444Z,610.00
2023-04-25T08:44:54.471Z,658.00
2023-04-25T08:45:54.451Z,661.00
2023-04-25T08:46:54.490Z,672.00
2023-04-25T08:47:54.529Z,684.00
2023-04-25T08:48:56.556Z,726.00
2023-04-25T08:49:54.495Z,746.00
2023-04-25T08:50:54.456Z,752.00
2023-04-25T08:51:54.457Z,759.00
2023-04-25T08:52:54.461Z,759.00
2023-04-25T08:53:57.845Z,760.00
2023-04-25T08:54:56.305Z,764.00
2023-04-25T08:55:54.362Z,767.00
2023-04-25T08:56:54.425Z,770.00
2023-04-25T08:57:54.602Z,779.00
2023-04-25T08:58:54.780Z,788.00
2023-04-25T08:59:54.407Z,795.00
2023-04-25T09:00:54.472Z,804.00
2023-04-25T09:01:54.404Z,826.00
2023-04-25T09:02:54.630Z,830.00
2023-04-25T09:03:54.578Z,830.00
2023-04-25T09:04:54.398Z,834.00
2023-04-25T09:05:54.445Z,833.00
2023-04-25T09:06:54.448Z,835.00
2023-04-25T09:07:54.412Z,839.00
2023-04-25T09:08:54.462Z,839.00
2023-04-25T09:09:54.661Z,837.00
2023-04-25T09:10:54.531Z,843.00
2023-04-25T09:11:54.519Z,848.00
2023-04-25T09:12:54.585Z,861.00
2023-04-25T09:13:54.528Z,873.00
2023-04-25T09:14:54.543Z,877.00
2023-04-25T09:15:54.551Z,879.00
2023-04-25T09:16:54.579Z,886.00
2023-04-25T09:17:54.932Z,890.00
2023-04-25T09:18:54.579Z,891.00
2023-04-25T09:19:54.559Z,891.00
2023-04-25T09:21:54.618Z,896.00
2023-04-25T09:22:54.583Z,896.00
2023-04-25T09:23:54.781Z,895.00
2023-04-25T09:24:54.573Z,898.00
2023-04-25T09:25:54.546Z,899.00
2023-04-25T09:26:54.575Z,900.00
2023-04-25T09:27:54.529Z,901.00
2023-04-25T09:28:54.567Z,904.00
2023-04-25T09:29:54.584Z,906.00
2023-04-25T09:30:54.517Z,910.00
2023-04-25T09:31:54.497Z,915.00
2023-04-25T09:32:54.580Z,923.00
2023-04-25T09:33:54.654Z,933.00
2023-04-25T09:34:54.483Z,936.00
2023-04-25T09:35:54.841Z,935.00
2023-04-25T09:37:09.077Z,928.00
2023-04-25T09:37:54.701Z,916.00
2023-04-25T09:38:54.745Z,905.00
2023-04-25T09:39:54.739Z,894.00
2023-04-25T09:40:54.919Z,879.00
2023-04-25T09:41:54.801Z,863.00
2023-04-25T09:42:54.815Z,846.00
2023-04-25T09:43:54.831Z,826.00
2023-04-25T09:44:54.846Z,816.00
2023-04-25T09:45:56.215Z,806.00
2023-04-25T09:46:55.174Z,795.00
2023-04-25T09:47:55.037Z,778.00
2023-04-25T09:48:55.153Z,767.00
2023-04-25T09:49:55.060Z,753.00
2023-04-25T09:50:55.038Z,740.00
2023-04-25T09:51:55.110Z,732.00
2023-04-25T09:52:55.068Z,724.00
2023-04-25T09:53:55.204Z,715.00
2023-04-25T09:54:55.185Z,706.00
2023-04-25T09:55:55.196Z,701.00
2023-04-25T09:56:55.211Z,696.00
2023-04-25T09:57:55.246Z,690.00
2023-04-25T09:58:55.278Z,680.00
2023-04-25T09:59:55.327Z,674.00
2023-04-25T10:00:55.391Z,667.00
2023-04-25T10:01:55.563Z,659.00
2023-04-25T10:02:55.621Z,654.00
2023-04-25T10:03:55.576Z,649.00
2023-04-25T10:04:55.657Z,643.00
2023-04-25T10:05:55.630Z,634.00
2023-04-25T10:06:55.674Z,626.00
2023-04-25T10:07:55.680Z,620.00
2023-04-25T10:08:55.789Z,615.00
2023-04-25T10:09:55.792Z,611.00
2023-04-25T10:10:55.819Z,615.00
2023-04-25T10:11:55.872Z,615.00
2023-04-25T10:12:55.953Z,614.00
2023-04-25T10:13:55.961Z,611.00
2023-04-25T10:14:56.131Z,609.00
2023-04-25T10:15:56.152Z,610.00
2023-04-25T10:16:56.166Z,611.00
2023-04-25T10:17:56.264Z,610.00
2023-04-25T10:18:56.270Z,608.00
2023-04-25T10:19:56.318Z,607.00
2023-04-25T10:20:56.305Z,607.00
2023-04-25T10:21:56.365Z,604.00
2023-04-25T10:22:56.403Z,603.00
2023-04-25T10:23:56.412Z,603.00
2023-04-25T10:24:56.468Z,601.00
2023-04-25T10:25:56.937Z,599.00
2023-04-25T10:26:56.548Z,599.00
2023-04-25T10:27:56.631Z,599.00
2023-04-25T10:28:56.644Z,598.00
2023-04-25T10:29:56.668Z,597.00
2023-04-25T10:30:56.768Z,594.00
2023-04-25T10:31:57.097Z,595.00
2023-04-25T10:32:56.880Z,595.00
2023-04-25T10:33:56.772Z,595.00
2023-04-25T10:34:57.001Z,592.00
2023-04-25T10:35:56.846Z,591.00
2023-04-25T10:36:56.949Z,592.00
2023-04-25T10:37:57.856Z,591.00
2023-04-25T10:38:57.165Z,587.00
2023-04-25T10:39:57.457Z,585.00
2023-04-25T10:40:57.009Z,586.00
2023-04-25T10:41:57.052Z,584.00
2023-04-25T10:42:57.165Z,585.00
2023-04-25T10:43:57.133Z,584.00
2023-04-25T10:44:57.205Z,583.00
2023-04-25T10:45:57.308Z,584.00
2023-04-25T10:46:57.374Z,584.00
2023-04-25T10:47:57.299Z,582.00
2023-04-25T10:48:57.505Z,579.00
2023-04-25T10:49:57.339Z,579.00
2023-04-25T10:50:57.447Z,579.00
2023-04-25T10:51:57.417Z,578.00
2023-04-25T10:52:57.473Z,576.00
2023-04-25T10:53:57.538Z,573.00
2023-04-25T10:54:57.567Z,572.00
2023-04-25T10:55:58.411Z,572.00
2023-04-25T10:56:57.875Z,572.00
2023-04-25T10:58:57.902Z,570.00
2023-04-25T10:59:57.786Z,570.00
2023-04-25T11:00:58.009Z,571.00
2023-04-25T11:01:58.001Z,571.00
2023-04-25T11:02:58.090Z,569.00
2023-04-25T11:03:58.268Z,568.00
2023-04-25T11:04:58.027Z,568.00
2023-04-25T11:05:58.588Z,567.00
2023-04-25T11:07:05.856Z,565.00
2023-04-25T11:08:06.340Z,565.00
2023-04-25T11:08:59.113Z,563.00
2023-04-25T11:09:58.093Z,563.00
2023-04-25T11:10:58.117Z,562.00
2023-04-25T11:11:58.416Z,560.00
2023-04-25T11:12:58.070Z,558.00
2023-04-25T11:13:58.100Z,561.00
2023-04-25T11:14:58.017Z,559.00
2023-04-25T11:16:07.154Z,558.00
2023-04-25T11:17:00.367Z,554.00
2023-04-25T11:17:58.055Z,554.00
2023-04-25T11:18:58.067Z,553.00
2023-04-25T11:19:58.022Z,554.00
2023-04-25T11:20:58.066Z,553.00
2023-04-25T11:21:58.052Z,552.00
2023-04-25T11:22:57.977Z,552.00
2023-04-25T11:23:58.002Z,551.00
2023-04-25T11:24:58.002Z,551.00
2023-04-25T11:25:57.961Z,551.00
2023-04-25T11:26:57.957Z,550.00
2023-04-25T11:27:58.142Z,546.00
2023-04-25T11:28:58.025Z,544.00
2023-04-25T11:29:57.992Z,543.00
2023-04-25T11:30:58.458Z,543.00
2023-04-25T11:31:58.017Z,543.00
2023-04-25T11:32:58.002Z,544.00
2023-04-25T11:33:57.913Z,543.00
2023-04-25T11:34:57.952Z,541.00
2023-04-25T11:35:57.946Z,540.00
2023-04-25T11:36:57.935Z,540.00
2023-04-25T11:37:57.880Z,538.00
2023-04-25T11:38:57.895Z,539.00
2023-04-25T11:39:57.880Z,538.00
2023-04-25T11:40:57.827Z,539.00
2023-04-25T11:41:57.874Z,539.00
2023-04-25T11:42:57.876Z,538.00
2023-04-25T11:43:57.881Z,538.00
2023-04-25T11:44:57.891Z,538.00
2023-04-25T11:45:57.934Z,538.00
2023-04-25T11:46:57.853Z,540.00
2023-04-25T11:47:57.987Z,538.00
2023-04-25T11:48:57.858Z,537.00
2023-04-25T11:49:57.827Z,534.00
2023-04-25T11:50:57.840Z,534.00
2023-04-25T11:51:57.831Z,535.00
2023-04-25T11:52:57.793Z,534.00
2023-04-25T11:53:57.793Z,531.00
2023-04-25T11:54:57.851Z,529.00
2023-04-25T11:55:57.782Z,529.00
2023-04-25T11:56:57.787Z,531.00
2023-04-25T11:57:57.770Z,533.00
2023-04-25T11:58:57.780Z,534.00
2023-04-25T11:59:57.796Z,532.00
2023-04-25T12:00:57.893Z,531.00
2023-04-25T12:01:57.883Z,531.00
2023-04-25T12:02:58.033Z,529.00
2023-04-25T12:03:58.210Z,532.00
2023-04-25T12:05:00.990Z,531.00
2023-04-25T12:05:59.222Z,530.00
2023-04-25T12:06:58.449Z,530.00
2023-04-25T12:07:57.963Z,528.00
2023-04-25T12:08:57.976Z,526.00
2023-04-25T12:09:57.982Z,526.00
2023-04-25T12:10:57.973Z,524.00
2023-04-25T12:11:57.977Z,524.00
2023-04-25T12:12:57.936Z,523.00
2023-04-25T12:13:57.973Z,522.00
2023-04-25T12:14:58.501Z,521.00
2023-04-25T12:15:58.024Z,521.00
2023-04-25T12:16:57.928Z,519.00
2023-04-25T12:17:58.023Z,518.00
2023-04-25T12:18:58.024Z,518.00
2023-04-25T12:19:58.132Z,518.00
2023-04-25T12:20:58.059Z,519.00
2023-04-25T12:21:59.406Z,518.00
2023-04-25T12:22:58.139Z,516.00
2023-04-25T12:23:58.178Z,514.00
2023-04-25T12:24:58.278Z,515.00
2023-04-25T12:25:58.236Z,513.00
2023-04-25T12:26:58.351Z,514.00
2023-04-25T12:27:58.369Z,514.00
2023-04-25T12:28:58.383Z,514.00
2023-04-25T12:29:58.649Z,513.00
2023-04-25T12:30:58.581Z,510.00